Time;durP1;ratioP1;P1;durP2;ratioP2;P2;SDS_P1;SDS_P2;PMS_P1;PMS_P2;Temp;Humidity;BMP_temperature;BMP_pressure;BME280_temperature;BME280_humidity;BME280_pressure;Samples;Min_cycle;Max_cycle;Signal;HPM_P1;HPM_P2
2022/03/04 00:02:07;;;;;;;5.57;1.90;;;;;;;6.11;78.09;101433.59;4923735;29;20079;-52
2022/03/04 00:05:00;;;;;;;8.73;1.60;;;;;;;6.04;78.17;101440.56;4923968;29;20044;-54
2022/03/04 00:07:47;;;;;;;4.78;1.95;;;;;;;6.00;78.39;101431.28;4923467;29;20102;-53
2022/03/04 00:10:34;;;;;;;1.92;1.45;;;;;;;5.97;78.64;101445.63;4923081;29;20517;-52
2022/03/04 00:13:22;;;;;;;5.63;1.70;;;;;;;5.93;78.86;101445.38;4921016;29;20138;-53
2022/03/04 00:16:09;;;;;;;2.97;2.42;;;;;;;5.92;78.83;101438.28;4924383;29;20122;-52
2022/03/04 00:19:12;;;;;;;5.47;1.80;;;;;;;5.91;78.96;101438.56;4922718;29;20481;-52
2022/03/04 00:22:00;;;;;;;2.33;1.73;;;;;;;5.88;79.07;101444.63;4924975;29;20269;-53
2022/03/04 00:24:48;;;;;;;3.75;1.50;;;;;;;5.84;79.21;101446.34;4924037;29;20047;-51
2022/03/04 00:27:35;;;;;;;4.82;2.53;;;;;;;5.78;79.31;101451.06;4924483;29;20245;-50
2022/03/04 00:30:22;;;;;;;5.93;2.63;;;;;;;5.71;79.69;101452.56;4926164;29;20059;-51
2022/03/04 00:33:09;;;;;;;5.18;1.73;;;;;;;5.60;80.00;101453.81;4923983;29;20055;-51
2022/03/04 00:35:56;;;;;;;3.75;1.80;;;;;;;5.60;79.75;101451.06;4924433;29;20109;-51
2022/03/04 00:38:43;;;;;;;6.32;2.05;;;;;;;5.53;79.87;101449.47;4925396;29;20051;-52
2022/03/04 00:41:31;;;;;;;8.45;2.45;;;;;;;5.50;80.12;101458.34;4925960;29;20079;-51
2022/03/04 00:44:18;;;;;;;2.42;1.67;;;;;;;5.41;80.43;101464.75;4925379;29;20075;-50
2022/03/04 00:47:05;;;;;;;5.85;2.70;;;;;;;5.34;80.57;101467.88;4924840;29;20052;-50
2022/03/04 00:49:53;;;;;;;4.93;2.08;;;;;;;5.31;80.69;101465.69;4911003;29;20461;-50
2022/03/04 00:52:40;;;;;;;3.80;2.22;;;;;;;5.32;80.50;101464.56;4924510;29;20187;-56
2022/03/04 00:55:27;;;;;;;4.15;1.98;;;;;;;5.24;80.71;101459.72;4924047;29;20195;-53
2022/03/04 00:58:14;;;;;;;6.30;3.35;;;;;;;5.21;80.47;101459.50;4923576;29;20075;-54
2022/03/04 01:01:03;;;;;;;3.75;1.80;;;;;;;5.16;80.99;101463.13;4925193;29;20043;-53
2022/03/04 01:03:51;;;;;;;6.22;1.83;;;;;;;5.14;80.45;101459.84;4923068;29;20044;-52
2022/03/04 01:06:39;;;;;;;2.47;1.60;;;;;;;5.07;81.27;101453.91;4924484;29;20051;-53
2022/03/04 01:09:27;;;;;;;6.95;3.35;;;;;;;5.05;81.56;101460.78;4910133;29;20421;-52
2022/03/04 01:12:14;;;;;;;4.32;2.30;;;;;;;5.11;80.96;101463.16;4923780;29;20107;-50
2022/03/04 01:15:02;;;;;;;3.63;1.85;;;;;;;5.08;81.42;101468.44;4922307;29;20081;-51
2022/03/04 01:17:29;;;;;;;2.72;1.13;;;;;;;5.01;81.53;101466.03;4926113;29;20048;-52
2022/03/04 01:19:56;;;;;;;3.97;1.35;;;;;;;5.00;81.50;101458.94;4925149;29;20155;-57
2022/03/04 01:22:22;;;;;;;2.58;1.52;;;;;;;5.01;81.69;101465.19;4923964;29;20135;-56
2022/03/04 01:24:49;;;;;;;5.30;1.35;;;;;;;5.02;81.22;101462.19;4923361;29;20044;-52
2022/03/04 01:27:16;;;;;;;3.67;1.40;;;;;;;4.99;81.21;101459.19;4924739;29;20134;-50
2022/03/04 01:29:43;;;;;;;4.53;1.63;;;;;;;5.03;81.29;101468.50;4924373;29;21011;-50
2022/03/04 01:32:10;;;;;;;4.63;1.45;;;;;;;5.04;81.35;101470.13;4922050;29;20389;-51
2022/03/04 01:34:38;;;;;;;4.43;2.47;;;;;;;5.05;80.88;101461.59;4921954;29;20614;-54
2022/03/04 01:37:07;;;;;;;4.00;1.33;;;;;;;5.05;80.81;101469.84;4925378;29;20047;-56
2022/03/04 01:39:34;;;;;;;2.72;1.55;;;;;;;5.05;81.17;101472.59;4907345;29;21486;-57
2022/03/04 01:42:02;;;;;;;3.28;1.20;;;;;;;4.99;81.33;101476.47;4925595;29;20047;-50
2022/03/04 01:44:28;;;;;;;8.20;1.85;;;;;;;4.93;81.42;101477.63;4923354;29;20438;-50
2022/03/04 01:46:55;;;;;;;3.58;1.63;;;;;;;4.87;81.93;101474.13;4922758;29;20394;-50
2022/03/04 01:49:22;;;;;;;2.67;1.60;;;;;;;4.88;81.91;101474.94;4925224;29;20083;-56
2022/03/04 01:51:49;;;;;;;2.42;1.10;;;;;;;4.83;81.96;101472.25;4890935;29;20076;-53
2022/03/04 01:54:16;;;;;;;3.33;1.42;;;;;;;4.82;81.55;101470.59;4924557;29;20048;-51
2022/03/04 01:56:43;;;;;;;2.05;1.08;;;;;;;4.83;81.71;101475.00;4910317;29;20099;-50
2022/03/04 01:59:10;;;;;;;4.88;1.90;;;;;;;4.82;81.70;101471.44;4925219;29;20050;-51
2022/03/04 02:01:38;;;;;;;6.43;1.40;;;;;;;4.79;82.05;101473.94;4922156;29;20059;-50
2022/03/04 02:04:05;;;;;;;5.35;2.53;;;;;;;4.69;82.08;101474.84;4921512;29;20075;-52
2022/03/04 02:06:32;;;;;;;4.70;2.30;;;;;;;4.70;82.02;101475.66;4924610;29;20507;-53
2022/03/04 02:08:59;;;;;;;6.63;2.22;;;;;;;4.66;81.94;101474.63;4923651;29;20164;-53
2022/03/04 02:11:48;;;;;;;5.82;2.38;;;;;;;4.61;82.20;101483.69;4912248;29;20543;-51
2022/03/04 02:14:35;;;;;;;6.32;3.25;;;;;;;4.57;82.00;101477.16;4909069;29;20379;-52
2022/03/04 02:17:22;;;;;;;6.60;2.35;;;;;;;4.56;81.92;101481.00;4922079;29;20051;-53
2022/03/04 02:20:10;;;;;;;8.85;3.47;;;;;;;4.55;82.01;101489.53;4927190;29;20445;-55
2022/03/04 02:22:57;;;;;;;5.05;2.78;;;;;;;4.51;81.78;101492.00;4910623;29;20088;-50
2022/03/04 02:25:52;;;;;;;3.30;1.42;;;;;;;4.49;82.23;101496.16;4925028;29;20044;-51
2022/03/04 02:33:06;;;;;;;3.08;1.50;;;;;;;4.44;81.80;101501.66;4925067;29;20974;-50
2022/03/04 02:35:54;;;;;;;3.95;1.50;;;;;;;4.44;81.91;101507.16;4922788;29;20051;-52
2022/03/04 02:38:42;;;;;;;8.23;2.45;;;;;;;4.45;81.65;101514.28;4925079;29;20056;-52
2022/03/04 02:41:29;;;;;;;3.30;1.52;;;;;;;4.37;82.05;101514.91;4922283;29;20575;-50
2022/03/04 02:44:16;;;;;;;2.33;1.73;;;;;;;4.36;81.70;101513.25;4917649;29;20134;-53
2022/03/04 02:47:04;;;;;;;2.20;1.40;;;;;;;4.27;82.23;101513.03;4924601;29;20134;-51
2022/03/04 02:49:51;;;;;;;4.95;1.35;;;;;;;4.25;82.34;101523.47;4924690;29;20059;-50
2022/03/04 02:52:18;;;;;;;5.05;1.20;;;;;;;4.25;82.26;101513.31;4924981;29;20071;-55
2022/03/04 02:54:45;;;;;;;7.53;1.40;;;;;;;4.25;82.34;101518.81;4926140;29;20052;-56
2022/03/04 02:57:12;;;;;;;1.90;1.20;;;;;;;4.11;82.85;101516.97;4926869;29;20102;-52
2022/03/04 02:59:39;;;;;;;3.58;1.30;;;;;;;4.10;82.58;101516.13;4927655;29;20040;-50
2022/03/04 03:20:12;;;;;;;5.25;1.42;;;;;;;3.92;82.70;101522.28;4933264;23;20070;-50
2022/03/04 03:22:59;;;;;;;4.07;1.35;;;;;;;3.85;83.18;101516.28;4967377;28;20128;-50
2022/03/04 03:25:26;;;;;;;3.05;1.23;;;;;;;3.86;82.84;101519.84;4964034;28;20043;-56
2022/03/04 03:27:53;;;;;;;3.10;1.10;;;;;;;3.79;83.07;101522.88;4967874;28;20571;-53
2022/03/04 03:30:20;;;;;;;3.05;1.92;;;;;;;3.76;83.00;101526.19;4968512;28;20047;-51
2022/03/04 03:32:48;;;;;;;3.35;1.08;;;;;;;3.78;82.86;101524.00;4969262;28;20070;-52
2022/03/04 03:35:15;;;;;;;3.15;1.42;;;;;;;3.82;83.08;101525.06;4965934;28;20121;-53
2022/03/04 03:37:42;;;;;;;3.55;1.63;;;;;;;3.81;82.80;101526.19;4967918;28;20532;-53
2022/03/04 03:44:06;;;;;;;7.70;1.65;;;;;;;3.74;83.02;101538.53;4963156;28;20502;-53
2022/03/04 03:51:37;;;;;;;5.32;1.52;;;;;;;3.76;82.40;101528.91;4969951;28;20420;-50
2022/03/04 03:54:04;;;;;;;4.88;1.27;;;;;;;3.68;82.42;101529.50;4966756;28;20070;-53
2022/03/04 03:56:31;;;;;;;7.25;1.40;;;;;;;3.64;82.73;101533.91;4967989;28;20097;-53
2022/03/04 04:09:38;;;;;;;5.55;2.38;;;;;;;3.36;82.94;101572.88;4967860;28;20133;-52
2022/03/04 04:12:26;;;;;;;3.28;1.33;;;;;;;3.32;83.00;101569.88;4967138;28;20193;-55
2022/03/04 04:15:13;;;;;;;3.40;1.10;;;;;;;3.29;82.95;101569.59;4952531;28;20086;-53
2022/03/04 04:18:00;;;;;;;6.78;1.50;;;;;;;3.29;82.44;101570.41;4967516;28;20105;-50
2022/03/04 04:20:47;;;;;;;4.00;1.10;;;;;;;3.26;82.62;101568.22;4966967;28;20039;-52
2022/03/04 04:28:25;;;;;;;6.00;1.38;;;;;;;3.17;82.59;101569.91;4968227;28;20054;-52
2022/03/04 04:35:28;;;;;;;5.07;1.30;;;;;;;3.02;82.87;101573.47;4967293;28;20038;-50
2022/03/04 04:37:57;;;;;;;4.90;1.48;;;;;;;3.01;82.49;101574.56;4967494;28;20126;-53
2022/03/04 04:40:23;;;;;;;5.93;1.40;;;;;;;2.98;82.85;101575.13;4966806;28;20082;-51
2022/03/04 04:42:50;;;;;;;3.40;1.13;;;;;;;2.97;82.97;101584.41;4968047;28;20053;-51
2022/03/04 04:45:17;;;;;;;2.85;1.58;;;;;;;2.96;82.42;101581.97;4949897;28;20039;-53
2022/03/04 04:47:44;;;;;;;5.20;1.38;;;;;;;2.94;82.68;101584.13;4966392;28;20436;-52
2022/03/04 04:50:11;;;;;;;5.25;1.30;;;;;;;2.87;82.84;101583.59;4967173;28;20169;-52
2022/03/04 04:52:38;;;;;;;3.72;1.17;;;;;;;2.85;83.09;101586.63;4968583;28;20031;-50
2022/03/04 04:55:05;;;;;;;5.70;1.77;;;;;;;2.83;83.04;101587.97;4965971;28;20058;-55
2022/03/04 04:57:32;;;;;;;3.88;1.48;;;;;;;2.81;83.18;101582.78;4966883;28;20121;-50
2022/03/04 04:59:59;;;;;;;5.10;1.60;;;;;;;2.79;83.04;101576.75;4968054;28;20054;-54
2022/03/04 05:02:26;;;;;;;5.93;1.45;;;;;;;2.80;83.04;101583.06;4966454;28;20078;-53
2022/03/04 05:04:54;;;;;;;4.00;1.35;;;;;;;2.76;83.15;101590.97;4968098;28;20041;-52
2022/03/04 05:07:20;;;;;;;4.55;1.65;;;;;;;2.74;83.43;101595.91;4968441;28;20046;-52
2022/03/04 05:09:48;;;;;;;4.65;1.30;;;;;;;2.76;83.30;101592.88;4964196;28;20134;-53
2022/03/04 05:12:14;;;;;;;4.75;1.02;;;;;;;2.75;83.04;101588.53;4968000;28;20043;-52
2022/03/04 05:14:41;;;;;;;3.33;1.00;;;;;;;2.73;83.26;101599.72;4966017;28;20180;-52
2022/03/04 05:17:08;;;;;;;5.75;1.25;;;;;;;2.75;82.92;101600.28;4966450;28;20043;-53
2022/03/04 05:19:35;;;;;;;4.53;1.52;;;;;;;2.69;83.25;101601.38;4967885;28;20050;-49
2022/03/04 05:22:02;;;;;;;2.92;1.40;;;;;;;2.71;83.21;101606.56;4967874;28;20089;-54
2022/03/04 05:24:29;;;;;;;6.25;1.30;;;;;;;2.71;83.12;101612.03;4950333;28;20081;-55
2022/03/04 05:26:56;;;;;;;7.18;3.00;;;;;;;2.69;82.90;101608.75;4965788;28;20085;-52
2022/03/04 05:29:23;;;;;;;7.32;1.60;;;;;;;2.67;83.16;101611.75;4966997;28;20043;-50
2022/03/04 05:31:50;;;;;;;6.93;1.55;;;;;;;2.64;83.12;101617.78;4964868;28;20492;-53
2022/03/04 05:34:17;;;;;;;8.45;2.28;;;;;;;2.64;83.18;101617.78;4950267;28;20098;-54
2022/03/04 05:36:44;;;;;;;4.88;1.77;;;;;;;2.65;83.16;101627.59;4966981;28;20035;-53
2022/03/04 05:39:11;;;;;;;11.63;4.10;;;;;;;2.60;82.92;101624.03;4967738;28;20038;-50
2022/03/04 05:41:38;;;;;;;4.80;1.30;;;;;;;2.58;83.16;101624.31;4966460;28;20472;-53
2022/03/04 05:44:06;;;;;;;6.57;1.40;;;;;;;2.59;82.88;101636.91;4948540;28;20050;-56
2022/03/04 05:46:33;;;;;;;4.93;2.00;;;;;;;2.61;83.17;101631.16;4963485;28;20137;-50
2022/03/04 05:49:00;;;;;;;7.90;1.58;;;;;;;2.59;82.72;101636.91;4967971;28;20139;-51
2022/03/04 05:51:27;;;;;;;9.60;1.85;;;;;;;2.55;83.42;101634.94;4968098;28;20051;-52
2022/03/04 05:53:54;;;;;;;7.25;1.65;;;;;;;2.50;83.57;101637.69;4970524;28;20574;-52
2022/03/04 05:56:22;;;;;;;5.32;1.38;;;;;;;2.47;83.51;101628.94;4969010;28;20074;-55
2022/03/04 05:58:50;;;;;;;4.68;1.40;;;;;;;2.49;83.74;101639.59;4971127;28;20050;-56
2022/03/04 06:01:17;;;;;;;3.97;1.30;;;;;;;2.49;83.19;101628.66;4966568;28;20055;-50
2022/03/04 06:03:45;;;;;;;7.13;2.08;;;;;;;2.45;83.60;101641.22;4968937;28;20560;-51
2022/03/04 06:06:35;;;;;;;15.00;2.13;;;;;;;2.42;83.56;101639.03;4967338;28;20062;-50
2022/03/04 06:09:08;;;;;;;4.47;0.90;;;;;;;2.38;83.41;101636.00;4945606;28;20034;-56
2022/03/04 06:16:57;;;;;;;5.63;2.60;;;;;;;2.32;83.67;101639.84;4938258;28;20055;-57
2022/03/04 06:21:12;;;;;;;5.53;1.23;;;;;;;2.29;83.72;101639.53;4970569;23;20161;-55
2022/03/04 06:28:38;;;;;;;6.00;1.60;;;;;;;2.24;83.32;101655.91;4873108;29;20112;-54
2022/03/04 06:31:05;;;;;;;2.63;1.15;;;;;;;2.15;83.84;101643.84;4880983;29;20052;-52
2022/03/04 06:38:22;;;;;;;7.30;1.77;;;;;;;2.09;83.62;101653.13;4859602;29;20614;-54
2022/03/04 06:40:49;;;;;;;4.88;1.77;;;;;;;2.09;83.72;101653.94;4860190;29;20056;-49
2022/03/04 06:48:07;;;;;;;10.80;2.03;;;;;;;2.08;83.80;101662.41;4859407;29;20105;-51
2022/03/04 06:58:54;;;;;;;3.05;2.13;;;;;;;2.15;83.20;101673.91;4856248;29;20073;-50
2022/03/04 07:01:54;;;;;;;7.88;1.67;;;;;;;2.15;83.48;101682.09;4854235;29;20048;-49
2022/03/04 07:04:42;;;;;;;14.63;1.60;;;;;;;2.13;83.46;101676.91;4857855;29;20072;-51
2022/03/04 07:07:29;;;;;;;8.27;3.50;;;;;;;2.11;83.74;101678.25;4859232;29;20518;-48
2022/03/04 07:14:21;;;;;;;5.75;1.40;;;;;;;2.08;83.69;101689.72;4853294;29;20127;-53
2022/03/04 07:16:47;;;;;;;3.25;1.60;;;;;;;2.12;83.49;101693.56;4856809;29;20048;-50
2022/03/04 07:19:38;;;;;;;4.85;1.63;;;;;;;2.12;83.36;101688.13;4859172;29;20152;-50
2022/03/04 07:22:25;;;;;;;9.73;1.50;;;;;;;2.11;83.80;101700.13;4870533;29;20419;-53
2022/03/04 07:25:18;;;;;;;9.55;2.00;;;;;;;2.07;83.80;101707.19;4896485;29;20620;-57
2022/03/04 07:28:06;;;;;;;3.03;1.38;;;;;;;2.06;83.69;101705.56;4896112;29;20065;-56
2022/03/04 07:30:53;;;;;;;8.23;2.00;;;;;;;2.06;83.81;101708.28;4895728;28;20572;-57
2022/03/04 07:46:13;;;;;;;5.53;1.58;;;;;;;2.07;84.02;101709.91;4894912;29;20516;-51
2022/03/04 07:48:40;;;;;;;11.45;2.15;;;;;;;2.09;84.26;101721.41;4897651;29;20048;-55
2022/03/04 07:51:06;;;;;;;5.90;1.70;;;;;;;2.09;84.36;101724.16;4894438;29;20643;-57
2022/03/04 07:53:33;;;;;;;10.45;2.55;;;;;;;2.13;84.20;101727.97;4897925;29;20950;-48
2022/03/04 07:56:00;;;;;;;4.00;1.30;;;;;;;2.12;84.41;101727.16;4897561;29;20176;-50
2022/03/04 07:59:39;;;;;;;5.35;1.58;;;;;;;2.15;84.60;101728.53;4895162;29;20040;-54
2022/03/04 08:02:06;;;;;;;6.20;1.55;;;;;;;2.23;84.20;101742.50;4882929;29;20657;-51
2022/03/04 08:05:20;;;;;;;8.57;1.67;;;;;;;2.23;84.32;101738.94;4894684;29;20316;-50
2022/03/04 08:07:47;;;;;;;3.55;1.52;;;;;;;2.24;84.42;101743.34;4895029;29;20048;-50
2022/03/04 08:10:15;;;;;;;5.30;1.48;;;;;;;2.26;84.42;101746.63;4895315;29;20294;-53
2022/03/04 08:12:42;;;;;;;4.15;1.60;;;;;;;2.27;84.55;101751.00;4891754;29;20480;-52
2022/03/04 08:19:46;;;;;;;8.65;2.15;;;;;;;2.35;84.07;101750.50;4894582;29;20491;-49
2022/03/04 08:22:13;;;;;;;11.90;2.92;;;;;;;2.34;84.06;101754.31;4895526;29;20063;-51
2022/03/04 08:25:12;;;;;;;9.07;2.08;;;;;;;2.38;84.30;101750.78;4898158;28;20464;-51
2022/03/04 08:28:00;;;;;;;7.18;2.22;;;;;;;2.42;84.18;101751.06;4894714;29;20371;-52
2022/03/04 08:30:48;;;;;;;10.48;1.77;;;;;;;2.42;84.31;101757.38;4894279;29;20672;-52
2022/03/04 08:33:15;;;;;;;5.75;2.17;;;;;;;2.47;84.15;101753.81;4892741;29;20048;-55
2022/03/04 08:35:47;;;;;;;6.90;1.70;;;;;;;2.51;84.31;101754.94;4896442;29;20043;-51
2022/03/04 08:38:15;;;;;;;7.22;1.60;;;;;;;2.57;84.55;101759.31;4895033;29;20098;-55
2022/03/04 08:41:47;;;;;;;5.28;2.08;;;;;;;2.61;84.63;101759.63;4896622;29;20147;-52
2022/03/04 08:44:16;;;;;;;6.68;1.48;;;;;;;2.71;84.17;101770.59;4893423;29;20297;-51
2022/03/04 08:46:44;;;;;;;7.90;2.08;;;;;;;2.76;84.17;101767.88;4894573;29;20777;-54
2022/03/04 08:49:12;;;;;;;7.53;1.27;;;;;;;2.77;84.33;101762.16;4892765;29;20324;-50
2022/03/04 08:51:39;;;;;;;13.32;2.47;;;;;;;2.83;84.53;101769.25;4893666;29;20460;-50
2022/03/04 08:54:07;;;;;;;11.40;3.33;;;;;;;2.90;84.42;101763.56;4891777;29;20465;-54
2022/03/04 08:56:35;;;;;;;4.20;1.73;;;;;;;2.95;84.22;101767.13;4896778;29;20093;-49
2022/03/04 08:59:18;;;;;;;9.25;1.67;;;;;;;2.99;84.36;101779.16;4894919;29;20146;-50
2022/03/04 09:01:45;;;;;;;6.38;2.42;;;;;;;3.04;84.34;101778.38;4893948;29;20076;-51
2022/03/04 09:04:14;;;;;;;11.07;1.98;;;;;;;3.12;83.98;101774.28;4892622;29;20055;-54
2022/03/04 09:06:41;;;;;;;7.93;1.92;;;;;;;3.15;83.81;101776.47;4895083;29;20047;-53
2022/03/04 09:09:08;;;;;;;11.45;1.95;;;;;;;3.23;83.88;101775.94;4893199;29;20040;-49
2022/03/04 09:11:35;;;;;;;8.55;2.30;;;;;;;3.31;84.29;101776.22;4877502;29;20452;-51
2022/03/04 09:14:03;;;;;;;8.25;2.50;;;;;;;3.37;83.91;101774.31;4894720;29;20630;-54
2022/03/04 09:16:30;;;;;;;6.82;1.80;;;;;;;3.44;83.67;101783.09;4894052;29;20667;-52
2022/03/04 09:18:57;;;;;;;10.23;2.90;;;;;;;3.51;83.92;101775.41;4894415;29;20257;-54
2022/03/04 09:21:24;;;;;;;9.75;2.00;;;;;;;3.57;83.85;101775.13;4894108;29;20611;-51
2022/03/04 09:23:52;;;;;;;6.85;1.40;;;;;;;3.64;83.67;101783.09;4893764;29;20059;-57
2022/03/04 09:26:19;;;;;;;9.30;1.45;;;;;;;3.72;83.80;101779.81;4893514;29;20360;-54
2022/03/04 09:28:47;;;;;;;9.93;1.25;;;;;;;3.77;83.12;101779.81;4897515;29;21178;-52
2022/03/04 09:31:14;;;;;;;3.00;1.48;;;;;;;3.83;82.98;101788.84;4897451;29;20242;-53
2022/03/04 09:33:41;;;;;;;13.57;1.73;;;;;;;3.90;83.61;101792.09;4897969;29;20591;-56
2022/03/04 09:36:11;;;;;;;12.25;2.92;;;;;;;3.96;82.84;101780.06;4897858;29;20051;-50
2022/03/04 09:38:39;;;;;;;7.72;2.47;;;;;;;4.02;83.16;101790.75;4897633;29;20431;-52
2022/03/04 09:41:06;;;;;;;10.55;1.70;;;;;;;4.05;82.92;101786.63;4895870;29;20427;-54
2022/03/04 09:43:33;;;;;;;10.13;2.03;;;;;;;4.07;82.91;101793.47;4895248;29;20051;-54
2022/03/04 09:46:01;;;;;;;8.77;1.80;;;;;;;4.11;83.06;101783.59;4898691;29;20132;-56
2022/03/04 09:48:28;;;;;;;10.98;3.47;;;;;;;4.12;83.02;101792.63;4895390;29;20048;-56
2022/03/04 09:50:55;;;;;;;8.68;1.40;;;;;;;4.18;82.69;101792.34;4897779;29;20036;-56
2022/03/04 09:53:25;;;;;;;8.98;2.45;;;;;;;4.20;82.39;101795.66;4897646;29;20147;-54
2022/03/04 09:56:22;;;;;;;13.57;3.75;;;;;;;4.27;82.80;101790.69;4898118;29;20048;-57
2022/03/04 09:58:54;;;;;;;19.42;3.30;;;;;;;4.33;82.01;101783.28;4895896;29;20537;-51
2022/03/04 10:01:22;;;;;;;;;;;;;;;4.40;82.02;101788.44;4895748;29;20047;-56
2022/03/04 10:03:51;;;;;;;3.42;1.40;;;;;;;4.49;82.17;101789.53;4895454;29;20366;-55
2022/03/04 10:06:20;;;;;;;4.65;1.30;;;;;;;4.55;81.51;101793.91;4895790;29;20055;-57
2022/03/04 10:08:52;;;;;;;11.48;1.83;;;;;;;4.60;81.56;101783.75;4895687;29;20043;-56
2022/03/04 10:11:33;;;;;;;9.40;1.95;;;;;;;4.65;80.73;101791.13;4896274;29;20051;-54
2022/03/04 10:14:08;;;;;;;7.88;1.15;;;;;;;4.72;80.08;101788.88;4896268;29;20504;-57
2022/03/04 10:16:38;;;;;;;6.22;2.08;;;;;;;4.79;80.31;101792.97;4895859;29;20047;-55
2022/03/04 10:19:14;;;;;;;8.43;1.35;;;;;;;4.84;79.36;101786.66;4895541;29;20158;-52
2022/03/04 10:21:54;;;;;;;5.55;1.17;;;;;;;4.85;79.15;101791.03;4895421;29;20051;-52
2022/03/04 10:24:29;;;;;;;7.53;1.48;;;;;;;4.90;79.54;101788.25;4896546;29;20162;-56
2022/03/04 10:27:02;;;;;;;8.63;1.70;;;;;;;4.95;79.52;101784.69;4895807;29;20043;-53
2022/03/04 10:29:45;;;;;;;8.32;1.33;;;;;;;5.01;79.45;101786.28;4894528;29;20511;-56
2022/03/04 10:32:15;;;;;;;11.35;1.40;;;;;;;5.08;79.46;101784.88;4895688;29;20159;-55
2022/03/04 10:35:41;;;;;;;9.68;2.45;;;;;;;5.17;78.69;101782.34;4893802;29;20051;-59
2022/03/04 10:38:21;;;;;;;5.00;1.60;;;;;;;5.26;79.03;101783.41;4894312;29;20059;-55
2022/03/04 10:41:53;;;;;;;5.25;1.00;;;;;;;5.28;78.15;101783.94;4894706;29;20043;-54
2022/03/04 10:44:27;;;;;;;7.53;1.02;;;;;;;5.29;78.03;101788.31;4893608;29;20155;-55
2022/03/04 10:46:58;;;;;;;5.35;1.00;;;;;;;5.30;78.95;101788.03;4895719;29;20569;-55
2022/03/04 10:54:19;;;;;;;5.88;1.35;;;;;;;5.46;78.13;101792.31;4895627;29;20723;-55
2022/03/04 10:57:04;;;;;;;7.63;1.02;;;;;;;5.50;77.26;101792.56;4896574;29;20447;-57
2022/03/04 10:59:33;;;;;;;7.85;1.48;;;;;;;5.59;77.92;101801.03;4895550;29;21371;-53
2022/03/04 11:02:00;;;;;;;7.13;1.10;;;;;;;5.65;78.19;101810.84;4893938;29;20860;-55
2022/03/04 11:04:28;;;;;;;4.32;1.10;;;;;;;5.68;77.11;101813.03;4895964;29;20055;-52
2022/03/04 11:06:57;;;;;;;8.07;2.10;;;;;;;5.73;77.48;101802.81;4892813;29;20489;-54
2022/03/04 11:09:24;;;;;;;5.00;1.08;;;;;;;5.79;77.45;101800.84;4895673;29;20036;-57
2022/03/04 11:11:53;;;;;;;4.22;1.30;;;;;;;5.84;77.05;101798.88;4895894;29;20488;-56
2022/03/04 11:14:21;;;;;;;6.85;1.40;;;;;;;5.88;76.94;101804.63;4895905;29;20399;-54
2022/03/04 11:16:50;;;;;;;6.88;1.48;;;;;;;5.91;77.09;101806.81;4895461;29;20106;-55
2022/03/04 11:19:18;;;;;;;12.90;3.03;;;;;;;5.97;76.73;101808.41;4896213;29;20585;-56
2022/03/04 11:21:45;;;;;;;5.13;1.08;;;;;;;6.03;76.69;101801.78;4893570;29;20039;-56
2022/03/04 11:24:13;;;;;;;4.07;1.27;;;;;;;6.09;76.31;101804.16;4892308;29;20052;-54
2022/03/04 11:26:44;;;;;;;5.28;0.95;;;;;;;6.15;76.23;101796.69;4894221;29;20087;-51
2022/03/04 11:29:43;;;;;;;11.52;1.52;;;;;;;6.19;72.38;101799.69;4896954;29;20481;-54
2022/03/04 11:32:29;;;;;;;5.55;1.15;;;;;;;6.25;73.75;101799.34;4894503;29;20837;-51
2022/03/04 11:36:05;;;;;;;5.55;1.20;;;;;;;6.39;73.85;101804.97;4882798;29;20585;-51
2022/03/04 11:38:44;;;;;;;4.85;1.30;;;;;;;6.53;75.10;101801.25;4855122;29;20562;-50
2022/03/04 11:41:16;;;;;;;3.47;0.95;;;;;;;6.67;75.37;101799.41;4853698;29;20061;-52
2022/03/04 11:43:57;;;;;;;4.13;0.90;;;;;;;6.77;74.65;101793.00;4884182;29;20044;-51
2022/03/04 11:46:26;;;;;;;5.78;2.58;;;;;;;6.78;74.20;101799.31;4894038;29;20043;-49
2022/03/04 11:49:32;;;;;;;8.35;1.77;;;;;;;6.83;72.43;101810.25;4894246;29;20609;-49
2022/03/04 11:52:27;;;;;;;6.05;1.08;;;;;;;6.86;73.04;101798.66;4886900;29;20486;-51
2022/03/04 11:54:57;;;;;;;4.20;0.82;;;;;;;6.89;73.25;101803.56;4895550;29;20048;-46
2022/03/04 11:57:44;;;;;;;6.22;1.75;;;;;;;6.91;69.47;101801.34;4895087;29;20071;-56
2022/03/04 12:00:15;;;;;;;5.60;1.25;;;;;;;6.91;72.88;101790.34;4893489;29;20442;-51
2022/03/04 12:02:42;;;;;;;6.37;1.07;;;;;;;7.00;72.72;101799.56;4895336;29;20146;-50
2022/03/04 12:05:12;;;;;;;4.55;1.15;;;;;;;7.09;72.46;101795.03;4894782;29;20059;-53
2022/03/04 12:07:53;;;;;;;3.92;0.90;;;;;;;7.17;70.61;101795.22;4878458;29;20052;-50
2022/03/04 12:10:47;;;;;;;11.90;1.65;;;;;;;7.30;70.00;101793.66;4895667;29;20083;-50
2022/03/04 12:13:40;;;;;;;3.72;1.35;;;;;;;7.38;70.35;101787.47;4893357;29;20048;-53
2022/03/04 12:21:23;;;;;;;5.05;0.98;;;;;;;7.55;69.62;101778.63;4892724;28;20648;-51
2022/03/04 12:23:53;;;;;;;4.00;1.63;;;;;;;7.62;70.06;101788.19;4894439;29;20059;-54
2022/03/04 12:27:31;;;;;;;9.57;1.35;;;;;;;7.65;67.25;101786.78;4894856;29;20044;-52
2022/03/04 12:30:21;;;;;;;4.15;1.02;;;;;;;7.63;67.89;101781.53;4894747;29;20039;-54
2022/03/04 12:32:52;;;;;;;5.57;1.10;;;;;;;7.68;69.50;101781.47;4917090;29;20501;-55
2022/03/04 12:35:21;;;;;;;3.45;0.80;;;;;;;7.68;67.76;101784.22;4923560;29;20070;-52
2022/03/04 12:37:49;;;;;;;3.25;1.27;;;;;;;7.73;67.86;101792.41;4924111;29;20051;-52
2022/03/04 12:40:16;;;;;;;3.20;1.10;;;;;;;7.74;67.86;101791.28;4922824;29;20052;-51
2022/03/04 12:42:55;;;;;;;9.18;1.38;;;;;;;7.82;66.56;101790.59;4923872;29;20070;-57
2022/03/04 12:45:26;;;;;;;6.78;1.27;;;;;;;7.91;67.05;101793.50;4924690;29;20434;-49
2022/03/04 12:47:54;;;;;;;3.58;0.82;;;;;;;7.95;67.06;101792.59;4925293;29;20039;-50
2022/03/04 12:50:29;;;;;;;5.57;1.10;;;;;;;7.98;64.80;101794.75;4923164;29;20516;-50
2022/03/04 12:52:56;;;;;;;4.03;0.93;;;;;;;8.10;66.64;101796.19;4924881;29;20043;-48
2022/03/04 12:55:23;;;;;;;14.63;2.10;;;;;;;8.24;66.36;101799.78;4923510;29;20047;-52
2022/03/04 12:57:50;;;;;;;8.88;1.23;;;;;;;8.37;66.38;101801.78;4923270;29;20051;-51
2022/03/04 13:00:18;;;;;;;5.32;0.82;;;;;;;8.43;65.66;101795.06;4923460;29;20035;-52
2022/03/04 13:02:45;;;;;;;7.57;2.40;;;;;;;8.46;65.15;101799.97;4922119;29;20077;-53
2022/03/04 13:05:12;;;;;;;4.25;0.88;;;;;;;8.50;64.37;101789.94;4923197;29;20082;-53
2022/03/04 13:07:41;;;;;;;7.28;2.40;;;;;;;8.57;64.34;101788.44;4922664;29;20110;-54
2022/03/04 13:10:08;;;;;;;3.83;0.60;;;;;;;8.65;63.60;101786.88;4922854;29;20168;-51
2022/03/04 13:12:36;;;;;;;4.03;1.45;;;;;;;8.64;63.74;101790.75;4924832;29;20405;-50
2022/03/04 13:15:11;;;;;;;3.65;1.10;;;;;;;8.53;61.47;101790.16;4922868;29;20124;-53
2022/03/04 13:17:39;;;;;;;9.73;1.45;;;;;;;8.55;63.98;101793.41;4923271;29;20052;-49
2022/03/04 13:20:08;;;;;;;2.58;1.25;;;;;;;8.68;63.86;101779.94;4924045;29;20135;-54
2022/03/04 13:22:35;;;;;;;5.40;1.30;;;;;;;8.85;63.20;101786.47;4921627;29;20051;-50
2022/03/04 13:25:02;;;;;;;2.22;0.70;;;;;;;9.03;62.91;101787.44;4921997;29;20139;-49
2022/03/04 13:27:40;;;;;;;3.97;0.73;;;;;;;9.16;60.91;101783.84;4922977;29;20067;-51
2022/03/04 13:30:07;;;;;;;4.82;1.58;;;;;;;9.24;62.18;101785.09;4923448;29;20122;-51
2022/03/04 13:32:46;;;;;;;3.58;1.70;;;;;;;9.18;61.88;101790.72;4921716;29;20044;-50
2022/03/04 13:36:27;;;;;;;6.32;1.40;;;;;;;9.40;60.28;101786.38;4923874;29;20071;-49
2022/03/04 13:40:18;;;;;;;5.68;2.25;;;;;;;9.34;60.73;101776.56;4921238;29;20048;-52
2022/03/04 13:42:52;;;;;;;4.57;0.90;;;;;;;9.45;60.51;101777.94;4921675;29;20454;-47
2022/03/04 13:45:46;;;;;;;4.35;0.80;;;;;;;9.43;57.56;101781.00;4922977;29;20462;-51
2022/03/04 13:48:14;;;;;;;6.22;0.90;;;;;;;9.60;60.79;101780.34;4904471;29;20063;-48
2022/03/04 13:50:45;;;;;;;6.97;1.60;;;;;;;9.81;60.39;101770.41;4922807;29;20056;-53
2022/03/04 13:53:14;;;;;;;4.95;2.28;;;;;;;10.01;60.03;101775.41;4920813;29;20501;-52
2022/03/04 13:55:51;;;;;;;5.47;1.00;;;;;;;9.95;55.79;101781.41;4923315;29;20048;-49
2022/03/04 14:03:03;;;;;;;3.13;1.67;;;;;;;9.61;57.44;101770.94;4926030;29;20051;-50
2022/03/04 14:10:15;;;;;;;5.35;1.20;;;;;;;8.97;58.30;101784.00;4924070;29;20048;-54
2022/03/04 14:12:44;;;;;;;9.80;3.22;;;;;;;8.81;59.30;101779.94;4924733;29;20052;-52
2022/03/04 14:20:20;;;;;;;3.33;1.15;;;;;;;9.43;57.71;101769.97;4928537;29;20116;-50